sensor_id;sensor_type;location;lat;lon;timestamp;temperature;humidity
72288;SHT31;60221;45.696;16.076;2022-09-12T00:01:13;19.18;60.05
72288;SHT31;60221;45.696;16.076;2022-09-12T00:03:41;18.73;61.37
72288;SHT31;60221;45.696;16.076;2022-09-12T00:06:27;18.38;62.54
72288;SHT31;60221;45.696;16.076;2022-09-12T00:08:57;18.60;65.66
72288;SHT31;60221;45.696;16.076;2022-09-12T00:11:24;19.17;66.43
72288;SHT31;60221;45.696;16.076;2022-09-12T00:13:57;19.50;64.97
72288;SHT31;60221;45.696;16.076;2022-09-12T00:16:28;19.74;65.54
72288;SHT31;60221;45.696;16.076;2022-09-12T00:18:54;20.31;63.62
72288;SHT31;60221;45.696;16.076;2022-09-12T00:21:22;20.32;62.67
72288;SHT31;60221;45.696;16.076;2022-09-12T00:23:49;20.31;61.91
72288;SHT31;60221;45.696;16.076;2022-09-12T00:26:18;20.71;61.92
72288;SHT31;60221;45.696;16.076;2022-09-12T00:28:46;20.84;60.45
72288;SHT31;60221;45.696;16.076;2022-09-12T00:31:17;20.76;60.83
72288;SHT31;60221;45.696;16.076;2022-09-12T00:33:44;20.82;60.07
72288;SHT31;60221;45.696;16.076;2022-09-12T00:36:15;20.65;60.18
72288;SHT31;60221;45.696;16.076;2022-09-12T00:38:44;20.59;60.20
72288;SHT31;60221;45.696;16.076;2022-09-12T00:41:24;20.48;60.18
72288;SHT31;60221;45.696;16.076;2022-09-12T00:43:55;20.48;60.81
72288;SHT31;60221;45.696;16.076;2022-09-12T00:46:46;20.52;60.82
72288;SHT31;60221;45.696;16.076;2022-09-12T00:49:24;20.51;60.77
72288;SHT31;60221;45.696;16.076;2022-09-12T00:51:59;20.42;60.26
72288;SHT31;60221;45.696;16.076;2022-09-12T00:54:29;20.23;60.18
72288;SHT31;60221;45.696;16.076;2022-09-12T00:57:01;20.10;60.37
72288;SHT31;60221;45.696;16.076;2022-09-12T00:59:43;19.93;60.99
72288;SHT31;60221;45.696;16.076;2022-09-12T01:02:09;20.01;61.72
72288;SHT31;60221;45.696;16.076;2022-09-12T01:04:38;20.87;62.46
72288;SHT31;60221;45.696;16.076;2022-09-12T01:07:07;21.58;59.62
72288;SHT31;60221;45.696;16.076;2022-09-12T01:09:35;21.28;56.74
72288;SHT31;60221;45.696;16.076;2022-09-12T01:12:04;20.38;57.21
72288;SHT31;60221;45.696;16.076;2022-09-12T01:14:32;19.59;58.81
72288;SHT31;60221;45.696;16.076;2022-09-12T01:16:59;19.00;59.65
72288;SHT31;60221;45.696;16.076;2022-09-12T01:19:56;18.56;61.18
72288;SHT31;60221;45.696;16.076;2022-09-12T01:25:41;19.12;68.02
72288;SHT31;60221;45.696;16.076;2022-09-12T01:31:10;21.10;61.21
72288;SHT31;60221;45.696;16.076;2022-09-12T01:42:30;19.12;58.93
72288;SHT31;60221;45.696;16.076;2022-09-12T01:47:58;18.12;61.16
72288;SHT31;60221;45.696;16.076;2022-09-12T01:50:37;17.71;62.00
72288;SHT31;60221;45.696;16.076;2022-09-12T01:53:18;18.55;67.42
72288;SHT31;60221;45.696;16.076;2022-09-12T01:55:57;19.81;64.97
72288;SHT31;60221;45.696;16.076;2022-09-12T01:58:42;20.78;61.33
72288;SHT31;60221;45.696;16.076;2022-09-12T02:01:14;21.18;58.85
72288;SHT31;60221;45.696;16.076;2022-09-12T02:09:21;18.83;59.36
72288;SHT31;60221;45.696;16.076;2022-09-12T02:11:52;18.33;60.59
72288;SHT31;60221;45.696;16.076;2022-09-12T02:14:30;17.91;61.31
72288;SHT31;60221;45.696;16.076;2022-09-12T02:17:10;17.57;62.31
72288;SHT31;60221;45.696;16.076;2022-09-12T02:19:48;18.25;68.32
72288;SHT31;60221;45.696;16.076;2022-09-12T02:22:20;19.12;65.01
72288;SHT31;60221;45.696;16.076;2022-09-12T02:24:54;19.17;62.94
72288;SHT31;60221;45.696;16.076;2022-09-12T02:27:39;19.15;62.96
72288;SHT31;60221;45.696;16.076;2022-09-12T02:30:07;19.63;63.22
72288;SHT31;60221;45.696;16.076;2022-09-12T02:32:50;20.17;61.41
72288;SHT31;60221;45.696;16.076;2022-09-12T02:35:46;20.10;59.84
72288;SHT31;60221;45.696;16.076;2022-09-12T02:40:51;20.04;59.31
72288;SHT31;60221;45.696;16.076;2022-09-12T02:43:18;19.65;57.88
72288;SHT31;60221;45.696;16.076;2022-09-12T02:45:45;18.91;58.32
72288;SHT31;60221;45.696;16.076;2022-09-12T02:48:28;18.33;59.53
72288;SHT31;60221;45.696;16.076;2022-09-12T02:50:55;17.85;60.82
72288;SHT31;60221;45.696;16.076;2022-09-12T02:53:22;17.46;61.33
72288;SHT31;60221;45.696;16.076;2022-09-12T02:55:50;17.11;62.49
72288;SHT31;60221;45.696;16.076;2022-09-12T02:58:22;17.63;67.03
72288;SHT31;60221;45.696;16.076;2022-09-12T03:09:33;19.14;61.31
72288;SHT31;60221;45.696;16.076;2022-09-12T03:18:05;18.77;57.87
72288;SHT31;60221;45.696;16.076;2022-09-12T03:20:58;18.04;58.93
72288;SHT31;60221;45.696;16.076;2022-09-12T03:23:32;17.44;60.43
72288;SHT31;60221;45.696;16.076;2022-09-12T03:26:09;17.01;61.36
72288;SHT31;60221;45.696;16.076;2022-09-12T03:28:38;17.39;65.33
72288;SHT31;60221;45.696;16.076;2022-09-12T03:31:15;17.92;64.94
72288;SHT31;60221;45.696;16.076;2022-09-12T03:33:42;18.15;63.54
72288;SHT31;60221;45.696;16.076;2022-09-12T03:36:15;18.24;63.15
72288;SHT31;60221;45.696;16.076;2022-09-12T03:38:42;18.29;62.77
72288;SHT31;60221;45.696;16.076;2022-09-12T03:41:08;18.38;62.89
72288;SHT31;60221;45.696;16.076;2022-09-12T03:43:34;18.46;62.63
72288;SHT31;60221;45.696;16.076;2022-09-12T03:46:00;18.52;61.93
72288;SHT31;60221;45.696;16.076;2022-09-12T03:48:26;18.62;61.68
72288;SHT31;60221;45.696;16.076;2022-09-12T03:50:52;18.71;61.85
72288;SHT31;60221;45.696;16.076;2022-09-12T03:53:18;18.84;62.06
72288;SHT31;60221;45.696;16.076;2022-09-12T03:55:44;19.10;61.18
72288;SHT31;60221;45.696;16.076;2022-09-12T03:58:11;19.29;60.48
72288;SHT31;60221;45.696;16.076;2022-09-12T04:00:38;19.50;59.53
72288;SHT31;60221;45.696;16.076;2022-09-12T04:03:04;19.21;57.18
72288;SHT31;60221;45.696;16.076;2022-09-12T04:05:30;18.50;58.09
72288;SHT31;60221;45.696;16.076;2022-09-12T04:07:56;17.87;59.03
72288;SHT31;60221;45.696;16.076;2022-09-12T04:10:22;17.43;60.08
72288;SHT31;60221;45.696;16.076;2022-09-12T04:12:48;17.02;61.17
72288;SHT31;60221;45.696;16.076;2022-09-12T04:15:15;16.67;62.29
72288;SHT31;60221;45.696;16.076;2022-09-12T04:17:41;17.19;67.19
72288;SHT31;60221;45.696;16.076;2022-09-12T04:20:07;18.09;65.84
72288;SHT31;60221;45.696;16.076;2022-09-12T04:22:33;18.71;63.54
72288;SHT31;60221;45.696;16.076;2022-09-12T04:25:00;19.04;62.40
72288;SHT31;60221;45.696;16.076;2022-09-12T04:27:26;19.36;60.63
72288;SHT31;60221;45.696;16.076;2022-09-12T04:29:53;19.65;60.04
72288;SHT31;60221;45.696;16.076;2022-09-12T04:32:20;20.04;58.08
72288;SHT31;60221;45.696;16.076;2022-09-12T04:34:47;19.65;55.43
72288;SHT31;60221;45.696;16.076;2022-09-12T04:37:13;18.74;56.13
72288;SHT31;60221;45.696;16.076;2022-09-12T04:39:39;18.11;57.71
72288;SHT31;60221;45.696;16.076;2022-09-12T04:42:05;17.62;59.10
72288;SHT31;60221;45.696;16.076;2022-09-12T04:44:31;17.22;60.21
72288;SHT31;60221;45.696;16.076;2022-09-12T04:46:57;16.88;60.64
72288;SHT31;60221;45.696;16.076;2022-09-12T04:49:23;16.56;61.42
72288;SHT31;60221;45.696;16.076;2022-09-12T04:51:52;17.16;66.74
72288;SHT31;60221;45.696;16.076;2022-09-12T04:54:20;18.56;65.47
72288;SHT31;60221;45.696;16.076;2022-09-12T04:56:49;19.36;61.88
72288;SHT31;60221;45.696;16.076;2022-09-12T04:59:19;19.91;59.28
72288;SHT31;60221;45.696;16.076;2022-09-12T05:01:46;19.60;55.95
72288;SHT31;60221;45.696;16.076;2022-09-12T05:04:14;18.70;56.28
72288;SHT31;60221;45.696;16.076;2022-09-12T05:06:41;17.97;57.63
72288;SHT31;60221;45.696;16.076;2022-09-12T05:09:11;17.49;58.84
72288;SHT31;60221;45.696;16.076;2022-09-12T05:11:41;17.09;59.78
72288;SHT31;60221;45.696;16.076;2022-09-12T05:14:10;16.81;61.04
72288;SHT31;60221;45.696;16.076;2022-09-12T05:16:36;16.56;62.25
72288;SHT31;60221;45.696;16.076;2022-09-12T05:19:02;17.43;68.08
72288;SHT31;60221;45.696;16.076;2022-09-12T05:21:29;18.78;65.20
72288;SHT31;60221;45.696;16.076;2022-09-12T05:23:57;19.73;62.34
72288;SHT31;60221;45.696;16.076;2022-09-12T05:26:25;20.29;59.50
72288;SHT31;60221;45.696;16.076;2022-09-12T05:28:52;19.98;56.97
72288;SHT31;60221;45.696;16.076;2022-09-12T05:31:22;19.12;57.87
72288;SHT31;60221;45.696;16.076;2022-09-12T05:33:53;18.49;59.36
72288;SHT31;60221;45.696;16.076;2022-09-12T05:36:24;18.07;60.14
72288;SHT31;60221;45.696;16.076;2022-09-12T05:38:50;17.77;61.39
72288;SHT31;60221;45.696;16.076;2022-09-12T05:41:23;18.19;65.70
72288;SHT31;60221;45.696;16.076;2022-09-12T05:43:56;19.04;64.42
72288;SHT31;60221;45.696;16.076;2022-09-12T05:46:36;19.66;63.85
72288;SHT31;60221;45.696;16.076;2022-09-12T05:49:05;20.34;62.42
72288;SHT31;60221;45.696;16.076;2022-09-12T05:51:35;20.71;60.89
72288;SHT31;60221;45.696;16.076;2022-09-12T05:54:09;20.86;60.21
72288;SHT31;60221;45.696;16.076;2022-09-12T05:56:39;21.03;60.01
72288;SHT31;60221;45.696;16.076;2022-09-12T05:59:19;21.20;59.93
72288;SHT31;60221;45.696;16.076;2022-09-12T06:01:46;21.30;59.82
72288;SHT31;60221;45.696;16.076;2022-09-12T06:04:13;21.41;60.14
72288;SHT31;60221;45.696;16.076;2022-09-12T06:06:44;21.58;60.55
72288;SHT31;60221;45.696;16.076;2022-09-12T06:09:14;21.74;63.32
72288;SHT31;60221;45.696;16.076;2022-09-12T06:11:41;21.92;60.88
72288;SHT31;60221;45.696;16.076;2022-09-12T06:14:10;22.44;61.75
72288;SHT31;60221;45.696;16.076;2022-09-12T06:16:37;22.86;60.43
72288;SHT31;60221;45.696;16.076;2022-09-12T06:19:07;23.09;59.05
72288;SHT31;60221;45.696;16.076;2022-09-12T06:21:35;22.62;57.21
72288;SHT31;60221;45.696;16.076;2022-09-12T06:24:03;22.17;57.97
72288;SHT31;60221;45.696;16.076;2022-09-12T06:26:30;21.91;61.64
72288;SHT31;60221;45.696;16.076;2022-09-12T06:28:59;22.37;66.61
72288;SHT31;60221;45.696;16.076;2022-09-12T06:31:30;23.58;62.82
72288;SHT31;60221;45.696;16.076;2022-09-12T06:34:00;24.50;60.03
72288;SHT31;60221;45.696;16.076;2022-09-12T06:36:32;24.53;56.04
72288;SHT31;60221;45.696;16.076;2022-09-12T06:39:05;24.01;54.78
72288;SHT31;60221;45.696;16.076;2022-09-12T06:41:33;23.54;55.25
72288;SHT31;60221;45.696;16.076;2022-09-12T06:44:00;23.23;55.77
72288;SHT31;60221;45.696;16.076;2022-09-12T06:46:27;22.98;56.86
72288;SHT31;60221;45.696;16.076;2022-09-12T06:48:58;22.76;57.32
72288;SHT31;60221;45.696;16.076;2022-09-12T06:51:27;22.52;57.73
72288;SHT31;60221;45.696;16.076;2022-09-12T06:53:55;22.30;58.37
72288;SHT31;60221;45.696;16.076;2022-09-12T06:56:26;22.06;58.97
72288;SHT31;60221;45.696;16.076;2022-09-12T06:58:56;21.86;60.32
72288;SHT31;60221;45.696;16.076;2022-09-12T07:01:26;21.66;60.52
72288;SHT31;60221;45.696;16.076;2022-09-12T07:03:55;21.51;61.04
72288;SHT31;60221;45.696;16.076;2022-09-12T07:06:34;21.31;61.38
72288;SHT31;60221;45.696;16.076;2022-09-12T07:09:02;21.18;62.91
72288;SHT31;60221;45.696;16.076;2022-09-12T07:11:33;21.69;63.96
72288;SHT31;60221;45.696;16.076;2022-09-12T07:14:03;22.39;63.66
72288;SHT31;60221;45.696;16.076;2022-09-12T07:16:30;23.50;62.29
72288;SHT31;60221;45.696;16.076;2022-09-12T07:18:59;24.39;59.35
72288;SHT31;60221;45.696;16.076;2022-09-12T07:21:28;24.32;56.10
72288;SHT31;60221;45.696;16.076;2022-09-12T07:23:55;23.65;56.92
72288;SHT31;60221;45.696;16.076;2022-09-12T07:26:28;23.16;58.12
72288;SHT31;60221;45.696;16.076;2022-09-12T07:28:54;22.82;59.09
72288;SHT31;60221;45.696;16.076;2022-09-12T07:31:24;22.59;59.18
72288;SHT31;60221;45.696;16.076;2022-09-12T07:33:51;22.44;60.08
72288;SHT31;60221;45.696;16.076;2022-09-12T07:36:21;22.30;60.77
72288;SHT31;60221;45.696;16.076;2022-09-12T07:38:55;22.20;61.41
72288;SHT31;60221;45.696;16.076;2022-09-12T07:41:26;22.10;61.73
72288;SHT31;60221;45.696;16.076;2022-09-12T07:43:55;21.99;61.96
72288;SHT31;60221;45.696;16.076;2022-09-12T07:46:23;22.55;64.43
72288;SHT31;60221;45.696;16.076;2022-09-12T07:48:52;23.56;62.46
72288;SHT31;60221;45.696;16.076;2022-09-12T07:51:20;24.25;59.88
72288;SHT31;60221;45.696;16.076;2022-09-12T07:53:47;24.30;57.13
72288;SHT31;60221;45.696;16.076;2022-09-12T07:56:15;23.82;57.40
72288;SHT31;60221;45.696;16.076;2022-09-12T07:58:43;23.40;57.80
72288;SHT31;60221;45.696;16.076;2022-09-12T08:01:18;23.05;57.29
72288;SHT31;60221;45.696;16.076;2022-09-12T08:03:48;22.78;58.59
72288;SHT31;60221;45.696;16.076;2022-09-12T08:06:18;22.61;59.84
72288;SHT31;60221;45.696;16.076;2022-09-12T08:08:46;22.46;60.70
72288;SHT31;60221;45.696;16.076;2022-09-12T08:11:17;22.40;61.56
72288;SHT31;60221;45.696;16.076;2022-09-12T08:13:44;22.29;62.11
72288;SHT31;60221;45.696;16.076;2022-09-12T08:16:17;22.23;61.48
72288;SHT31;60221;45.696;16.076;2022-09-12T08:18:48;22.19;62.33
72288;SHT31;60221;45.696;16.076;2022-09-12T08:21:22;22.72;63.45
72288;SHT31;60221;45.696;16.076;2022-09-12T08:23:55;23.49;60.60
72288;SHT31;60221;45.696;16.076;2022-09-12T08:26:21;23.94;60.25
72288;SHT31;60221;45.696;16.076;2022-09-12T08:28:50;24.16;58.55
72288;SHT31;60221;45.696;16.076;2022-09-12T08:31:20;24.19;57.65
72288;SHT31;60221;45.696;16.076;2022-09-12T08:33:47;23.82;57.43
72288;SHT31;60221;45.696;16.076;2022-09-12T08:36:20;23.54;57.66
72288;SHT31;60221;45.696;16.076;2022-09-12T08:38:52;23.33;58.99
72288;SHT31;60221;45.696;16.076;2022-09-12T08:41:27;23.16;58.29
72288;SHT31;60221;45.696;16.076;2022-09-12T08:44:28;23.01;58.35
72288;SHT31;60221;45.696;16.076;2022-09-12T08:49:34;22.84;59.73
72288;SHT31;60221;45.696;16.076;2022-09-12T08:52:12;22.71;59.23
72288;SHT31;60221;45.696;16.076;2022-09-12T08:54:41;22.62;60.25
72288;SHT31;60221;45.696;16.076;2022-09-12T08:57:10;22.59;60.73
72288;SHT31;60221;45.696;16.076;2022-09-12T08:59:43;22.58;60.54
72288;SHT31;60221;45.696;16.076;2022-09-12T09:10:58;22.57;59.52
72288;SHT31;60221;45.696;16.076;2022-09-12T09:13:59;22.54;60.17
72288;SHT31;60221;45.696;16.076;2022-09-12T09:16:43;22.64;60.96
72288;SHT31;60221;45.696;16.076;2022-09-12T09:19:30;22.68;61.33
72288;SHT31;60221;45.696;16.076;2022-09-12T09:22:10;22.71;61.79
72288;SHT31;60221;45.696;16.076;2022-09-12T09:24:52;22.79;61.35
72288;SHT31;60221;45.696;16.076;2022-09-12T09:27:42;22.80;60.97
72288;SHT31;60221;45.696;16.076;2022-09-12T09:30:16;22.80;60.98
72288;SHT31;60221;45.696;16.076;2022-09-12T09:32:48;22.75;61.03
72288;SHT31;60221;45.696;16.076;2022-09-12T09:35:28;22.80;61.43
72288;SHT31;60221;45.696;16.076;2022-09-12T09:43:45;23.26;59.15
72288;SHT31;60221;45.696;16.076;2022-09-12T09:46:12;23.39;59.48
72288;SHT31;60221;45.696;16.076;2022-09-12T09:48:48;23.50;59.86
72288;SHT31;60221;45.696;16.076;2022-09-12T09:51:22;23.61;59.92
72288;SHT31;60221;45.696;16.076;2022-09-12T09:54:07;23.72;58.42
72288;SHT31;60221;45.696;16.076;2022-09-12T09:56:35;23.87;57.74
72288;SHT31;60221;45.696;16.076;2022-09-12T09:59:29;23.97;56.99
72288;SHT31;60221;45.696;16.076;2022-09-12T10:02:20;24.06;56.55
72288;SHT31;60221;45.696;16.076;2022-09-12T10:04:57;24.20;56.55
72288;SHT31;60221;45.696;16.076;2022-09-12T10:07:25;24.36;56.12
72288;SHT31;60221;45.696;16.076;2022-09-12T10:10:14;24.52;55.58
72288;SHT31;60221;45.696;16.076;2022-09-12T10:12:42;24.70;54.49
72288;SHT31;60221;45.696;16.076;2022-09-12T10:15:25;24.81;54.15
72288;SHT31;60221;45.696;16.076;2022-09-12T10:17:52;24.95;54.51
72288;SHT31;60221;45.696;16.076;2022-09-12T10:20:41;24.98;53.39
72288;SHT31;60221;45.696;16.076;2022-09-12T10:25:57;25.15;53.62
72288;SHT31;60221;45.696;16.076;2022-09-12T10:28:36;25.19;52.13
72288;SHT31;60221;45.696;16.076;2022-09-12T10:31:07;25.23;51.04
72288;SHT31;60221;45.696;16.076;2022-09-12T10:33:46;25.28;50.21
72288;SHT31;60221;45.696;16.076;2022-09-12T10:36:10;25.28;48.91
72288;SHT31;60221;45.696;16.076;2022-09-12T10:38:37;25.22;49.66
72288;SHT31;60221;45.696;16.076;2022-09-12T10:41:07;25.18;48.68
72288;SHT31;60221;45.696;16.076;2022-09-12T10:43:38;25.14;50.02
72288;SHT31;60221;45.696;16.076;2022-09-12T10:48:49;25.15;49.72
72288;SHT31;60221;45.696;16.076;2022-09-12T10:53:59;25.23;50.06
72288;SHT31;60221;45.696;16.076;2022-09-12T11:00:08;25.30;49.61
72288;SHT31;60221;45.696;16.076;2022-09-12T11:03:17;25.33;49.59
72288;SHT31;60221;45.696;16.076;2022-09-12T11:05:56;25.38;49.29
72288;SHT31;60221;45.696;16.076;2022-09-12T11:08:49;25.45;49.17
72288;SHT31;60221;45.696;16.076;2022-09-12T11:14:51;25.59;48.71
72288;SHT31;60221;45.696;16.076;2022-09-12T11:17:32;25.69;48.94
72288;SHT31;60221;45.696;16.076;2022-09-12T11:25:45;25.88;47.58
72288;SHT31;60221;45.696;16.076;2022-09-12T11:28:35;25.93;47.60
72288;SHT31;60221;45.696;16.076;2022-09-12T11:33:59;26.07;47.12
72288;SHT31;60221;45.696;16.076;2022-09-12T11:39:15;26.18;46.41
72288;SHT31;60221;45.696;16.076;2022-09-12T11:41:56;26.24;46.56
72288;SHT31;60221;45.696;16.076;2022-09-12T11:44:39;26.34;45.99
72288;SHT31;60221;45.696;16.076;2022-09-12T11:47:10;26.42;46.56
72288;SHT31;60221;45.696;16.076;2022-09-12T11:49:47;26.50;46.50
72288;SHT31;60221;45.696;16.076;2022-09-12T11:52:25;26.58;46.23
72288;SHT31;60221;45.696;16.076;2022-09-12T11:55:19;26.66;46.18
72288;SHT31;60221;45.696;16.076;2022-09-12T11:57:55;26.68;45.75
72288;SHT31;60221;45.696;16.076;2022-09-12T12:06:05;26.80;45.12
72288;SHT31;60221;45.696;16.076;2022-09-12T12:08:38;26.86;43.54
72288;SHT31;60221;45.696;16.076;2022-09-12T12:11:06;26.76;43.69
72288;SHT31;60221;45.696;16.076;2022-09-12T12:13:50;26.77;44.20
72288;SHT31;60221;45.696;16.076;2022-09-12T12:16:33;26.75;43.76
72288;SHT31;60221;45.696;16.076;2022-09-12T12:21:48;26.66;43.32
72288;SHT31;60221;45.696;16.076;2022-09-12T12:24:22;26.63;43.54
72288;SHT31;60221;45.696;16.076;2022-09-12T12:27:20;26.62;43.62
72288;SHT31;60221;45.696;16.076;2022-09-12T12:29:44;26.68;43.18
72288;SHT31;60221;45.696;16.076;2022-09-12T12:32:18;26.66;40.54
72288;SHT31;60221;45.696;16.076;2022-09-12T12:34:46;26.63;41.65
72288;SHT31;60221;45.696;16.076;2022-09-12T12:40:00;26.58;41.38
72288;SHT31;60221;45.696;16.076;2022-09-12T12:47:42;26.63;41.27
72288;SHT31;60221;45.696;16.076;2022-09-12T12:53:02;26.80;42.94
72288;SHT31;60221;45.696;16.076;2022-09-12T12:58:34;27.01;42.22
72288;SHT31;60221;45.696;16.076;2022-09-12T13:01:10;27.08;42.19
72288;SHT31;60221;45.696;16.076;2022-09-12T13:03:40;27.15;42.48
72288;SHT31;60221;45.696;16.076;2022-09-12T13:08:58;27.17;41.79
72288;SHT31;60221;45.696;16.076;2022-09-12T13:11:35;27.15;42.16
72288;SHT31;60221;45.696;16.076;2022-09-12T13:14:31;27.11;42.40
72288;SHT31;60221;45.696;16.076;2022-09-12T13:16:51;27.06;42.77
72288;SHT31;60221;45.696;16.076;2022-09-12T13:19:16;27.01;42.89
72288;SHT31;60221;45.696;16.076;2022-09-12T13:22:07;26.96;42.23
72288;SHT31;60221;45.696;16.076;2022-09-12T13:24:42;26.82;42.42
72288;SHT31;60221;45.696;16.076;2022-09-12T13:27:24;26.69;43.37
72288;SHT31;60221;45.696;16.076;2022-09-12T13:30:15;26.58;42.76
72288;SHT31;60221;45.696;16.076;2022-09-12T13:32:40;26.46;42.72
72288;SHT31;60221;45.696;16.076;2022-09-12T13:38:10;26.21;43.30
72288;SHT31;60221;45.696;16.076;2022-09-12T13:40:58;26.11;43.09
72288;SHT31;60221;45.696;16.076;2022-09-12T13:43:42;25.98;42.52
72288;SHT31;60221;45.696;16.076;2022-09-12T13:46:21;25.88;42.49
72288;SHT31;60221;45.696;16.076;2022-09-12T13:48:47;25.73;42.55
72288;SHT31;60221;45.696;16.076;2022-09-12T13:51:26;25.69;43.13
72288;SHT31;60221;45.696;16.076;2022-09-12T13:54:02;25.59;43.07
72288;SHT31;60221;45.696;16.076;2022-09-12T13:56:28;25.54;43.30
72288;SHT31;60221;45.696;16.076;2022-09-12T13:58:58;25.47;42.88
72288;SHT31;60221;45.696;16.076;2022-09-12T14:01:42;25.42;42.74
72288;SHT31;60221;45.696;16.076;2022-09-12T14:04:22;25.36;42.88
72288;SHT31;60221;45.696;16.076;2022-09-12T14:07:18;25.26;42.83
72288;SHT31;60221;45.696;16.076;2022-09-12T14:09:57;25.18;42.57
72288;SHT31;60221;45.696;16.076;2022-09-12T14:12:35;25.17;43.29
72288;SHT31;60221;45.696;16.076;2022-09-12T14:15:00;25.07;43.50
72288;SHT31;60221;45.696;16.076;2022-09-12T14:17:37;25.01;43.86
72288;SHT31;60221;45.696;16.076;2022-09-12T14:20:11;24.91;44.18
72288;SHT31;60221;45.696;16.076;2022-09-12T14:22:36;24.85;44.59
72288;SHT31;60221;45.696;16.076;2022-09-12T14:25:05;24.83;44.32
72288;SHT31;60221;45.696;16.076;2022-09-12T14:27:47;24.77;44.00
72288;SHT31;60221;45.696;16.076;2022-09-12T14:30:33;24.74;44.35
72288;SHT31;60221;45.696;16.076;2022-09-12T14:33:17;24.74;44.47
72288;SHT31;60221;45.696;16.076;2022-09-12T14:35:51;24.81;44.83
72288;SHT31;60221;45.696;16.076;2022-09-12T14:38:23;24.87;44.77
72288;SHT31;60221;45.696;16.076;2022-09-12T14:41:04;24.88;44.45
72288;SHT31;60221;45.696;16.076;2022-09-12T14:43:32;24.85;44.70
72288;SHT31;60221;45.696;16.076;2022-09-12T14:46:04;24.84;44.54
72288;SHT31;60221;45.696;16.076;2022-09-12T14:48:34;24.81;44.68
72288;SHT31;60221;45.696;16.076;2022-09-12T14:51:02;24.80;44.01
72288;SHT31;60221;45.696;16.076;2022-09-12T14:53:35;24.78;44.76
72288;SHT31;60221;45.696;16.076;2022-09-12T14:56:10;24.77;45.03
72288;SHT31;60221;45.696;16.076;2022-09-12T14:58:40;24.74;44.87
72288;SHT31;60221;45.696;16.076;2022-09-12T15:09:02;24.64;45.19
72288;SHT31;60221;45.696;16.076;2022-09-12T15:11:29;24.59;45.24
72288;SHT31;60221;45.696;16.076;2022-09-12T15:13:55;24.56;45.28
72288;SHT31;60221;45.696;16.076;2022-09-12T15:16:21;24.52;44.86
72288;SHT31;60221;45.696;16.076;2022-09-12T15:18:47;24.47;44.60
72288;SHT31;60221;45.696;16.076;2022-09-12T15:21:17;24.37;44.50
72288;SHT31;60221;45.696;16.076;2022-09-12T15:23:48;24.27;44.31
72288;SHT31;60221;45.696;16.076;2022-09-12T15:26:21;24.22;45.05
72288;SHT31;60221;45.696;16.076;2022-09-12T15:28:48;24.13;45.24
72288;SHT31;60221;45.696;16.076;2022-09-12T15:31:30;24.02;45.80
72288;SHT31;60221;45.696;16.076;2022-09-12T15:34:01;23.92;45.92
72288;SHT31;60221;45.696;16.076;2022-09-12T15:36:28;23.89;46.20
72288;SHT31;60221;45.696;16.076;2022-09-12T15:38:54;23.81;46.42
72288;SHT31;60221;45.696;16.076;2022-09-12T15:41:31;23.71;46.85
72288;SHT31;60221;45.696;16.076;2022-09-12T15:43:58;23.67;47.00
72288;SHT31;60221;45.696;16.076;2022-09-12T15:46:24;23.60;47.21
72288;SHT31;60221;45.696;16.076;2022-09-12T15:48:50;23.51;47.39
72288;SHT31;60221;45.696;16.076;2022-09-12T15:51:19;23.46;47.87
72288;SHT31;60221;45.696;16.076;2022-09-12T15:53:48;23.36;48.09
72288;SHT31;60221;45.696;16.076;2022-09-12T15:56:18;23.30;48.44
72288;SHT31;60221;45.696;16.076;2022-09-12T15:58:45;23.23;48.93
72288;SHT31;60221;45.696;16.076;2022-09-12T16:01:14;23.19;49.29
72288;SHT31;60221;45.696;16.076;2022-09-12T16:03:46;23.10;49.45
72288;SHT31;60221;45.696;16.076;2022-09-12T16:06:13;23.07;49.55
72288;SHT31;60221;45.696;16.076;2022-09-12T16:08:40;23.01;49.94
72288;SHT31;60221;45.696;16.076;2022-09-12T16:11:12;22.96;50.21
72288;SHT31;60221;45.696;16.076;2022-09-12T16:13:38;22.88;50.44
72288;SHT31;60221;45.696;16.076;2022-09-12T16:16:05;22.84;50.83
72288;SHT31;60221;45.696;16.076;2022-09-12T16:18:32;22.79;50.80
72288;SHT31;60221;45.696;16.076;2022-09-12T16:20:58;22.75;50.81
72288;SHT31;60221;45.696;16.076;2022-09-12T16:23:24;22.69;50.84
72288;SHT31;60221;45.696;16.076;2022-09-12T16:26:02;22.61;51.04
72288;SHT31;60221;45.696;16.076;2022-09-12T16:28:30;22.55;51.34
72288;SHT31;60221;45.696;16.076;2022-09-12T16:31:01;22.51;51.60
72288;SHT31;60221;45.696;16.076;2022-09-12T16:33:30;22.44;51.87
72288;SHT31;60221;45.696;16.076;2022-09-12T16:36:07;22.37;52.06
72288;SHT31;60221;45.696;16.076;2022-09-12T16:38:48;22.33;52.43
72288;SHT31;60221;45.696;16.076;2022-09-12T16:41:13;22.25;52.71
72288;SHT31;60221;45.696;16.076;2022-09-12T16:43:40;22.21;53.08
72288;SHT31;60221;45.696;16.076;2022-09-12T16:46:20;22.14;53.15
72288;SHT31;60221;45.696;16.076;2022-09-12T16:48:53;22.07;53.41
72288;SHT31;60221;45.696;16.076;2022-09-12T16:51:29;22.00;53.72
72288;SHT31;60221;45.696;16.076;2022-09-12T16:53:55;21.93;53.93
72288;SHT31;60221;45.696;16.076;2022-09-12T16:56:23;21.88;54.13
72288;SHT31;60221;45.696;16.076;2022-09-12T16:58:50;21.78;54.33
72288;SHT31;60221;45.696;16.076;2022-09-12T17:01:23;21.74;54.48
72288;SHT31;60221;45.696;16.076;2022-09-12T17:03:56;21.61;54.65
72288;SHT31;60221;45.696;16.076;2022-09-12T17:06:23;21.56;55.03
72288;SHT31;60221;45.696;16.076;2022-09-12T17:08:53;21.48;55.24
72288;SHT31;60221;45.696;16.076;2022-09-12T17:11:27;21.41;55.37
72288;SHT31;60221;45.696;16.076;2022-09-12T17:13:58;21.31;55.66
72288;SHT31;60221;45.696;16.076;2022-09-12T17:16:26;21.26;55.98
72288;SHT31;60221;45.696;16.076;2022-09-12T17:18:54;21.15;56.15
72288;SHT31;60221;45.696;16.076;2022-09-12T17:21:21;21.07;56.41
72288;SHT31;60221;45.696;16.076;2022-09-12T17:23:47;21.01;56.74
72288;SHT31;60221;45.696;16.076;2022-09-12T17:26:14;20.93;56.95
72288;SHT31;60221;45.696;16.076;2022-09-12T17:28:40;20.84;57.21
72288;SHT31;60221;45.696;16.076;2022-09-12T17:31:10;20.79;57.44
72288;SHT31;60221;45.696;16.076;2022-09-12T17:33:37;20.72;57.79
72288;SHT31;60221;45.696;16.076;2022-09-12T17:36:16;20.65;57.98
72288;SHT31;60221;45.696;16.076;2022-09-12T17:38:44;20.56;58.27
72288;SHT31;60221;45.696;16.076;2022-09-12T17:41:19;20.46;58.66
72288;SHT31;60221;45.696;16.076;2022-09-12T17:43:51;20.39;58.88
72288;SHT31;60221;45.696;16.076;2022-09-12T17:46:20;20.34;59.21